Time;durP1;ratioP1;P1;durP2;ratioP2;P2;SDS_P1;SDS_P2;PMS_P1;PMS_P2;Temp;Humidity;BMP_temperature;BMP_pressure;BME280_temperature;BME280_humidity;BME280_pressure;Samples;Min_cycle;Max_cycle;Signal;HPM_P1;HPM_P2
2024/01/09 00:01:28;;;;;;;22.70;9.40;;;;;;;-10.90;43.80;101431.02;107975;1253;72807;-66
2024/01/09 00:03:55;;;;;;;26.00;10.50;;;;;;;-10.88;44.00;101439.34;108017;1253;69165;-66
2024/01/09 00:06:23;;;;;;;22.90;9.20;;;;;;;-10.87;44.08;101440.73;108001;1258;72476;-66
2024/01/09 00:08:51;;;;;;;24.10;9.50;;;;;;;-10.92;43.91;101447.71;108021;1252;61293;-67
2024/01/09 00:11:19;;;;;;;27.00;10.10;;;;;;;-10.96;44.48;101451.33;108081;1253;60529;-66
2024/01/09 00:13:46;;;;;;;27.20;10.10;;;;;;;-10.92;44.64;101451.08;107995;1253;72960;-66
2024/01/09 00:16:14;;;;;;;26.10;9.40;;;;;;;-10.80;44.68;101459.20;108071;1253;70305;-66
2024/01/09 00:18:41;;;;;;;22.90;8.60;;;;;;;-10.74;45.66;101463.20;108040;1253;71448;-66
2024/01/09 00:21:09;;;;;;;25.80;11.00;;;;;;;-10.66;44.63;101461.04;108106;1254;61613;-66
2024/01/09 00:23:36;;;;;;;26.30;10.80;;;;;;;-10.70;44.04;101471.10;108041;1259;60339;-66
2024/01/09 00:26:04;;;;;;;26.90;9.70;;;;;;;-10.92;43.71;101476.38;108014;1253;72647;-66
2024/01/09 00:28:32;;;;;;;24.60;9.70;;;;;;;-11.16;43.66;101480.11;108021;1253;69204;-66
2024/01/09 00:30:59;;;;;;;25.00;9.10;;;;;;;-11.26;43.82;101476.83;108057;1254;72705;-66
2024/01/09 00:33:27;;;;;;;18.40;8.00;;;;;;;-11.32;44.21;101473.20;108023;1253;62622;-66
2024/01/09 00:35:54;;;;;;;24.30;10.20;;;;;;;-11.24;44.33;101474.45;108042;1253;60233;-66
2024/01/09 00:38:22;;;;;;;21.70;8.10;;;;;;;-11.27;44.29;101468.23;108004;1253;72651;-66
2024/01/09 00:40:50;;;;;;;21.00;8.60;;;;;;;-11.21;44.89;101468.52;108014;1253;70149;-66
2024/01/09 00:43:17;;;;;;;24.80;8.90;;;;;;;-11.09;44.89;101462.41;107976;1253;72770;-66
2024/01/09 00:45:45;;;;;;;24.40;9.40;;;;;;;-11.03;44.98;101458.23;108059;1254;61284;-66
2024/01/09 00:48:12;;;;;;;18.00;8.60;;;;;;;-10.91;44.94;101463.98;108047;1253;59693;-65
2024/01/09 00:50:40;;;;;;;17.90;7.60;;;;;;;-10.86;45.13;101466.23;108088;1253;73137;-67
2024/01/09 00:53:08;;;;;;;22.20;8.00;;;;;;;-10.80;45.45;101464.30;108120;1256;70317;-66
2024/01/09 00:55:36;;;;;;;21.10;8.00;;;;;;;-10.77;45.29;101463.52;108077;1253;71438;-66
2024/01/09 00:58:03;;;;;;;23.80;9.00;;;;;;;-10.75;44.69;101460.73;108040;1253;62573;-66
2024/01/09 01:00:31;;;;;;;22.10;9.50;;;;;;;-10.86;44.41;101464.05;108105;1253;60345;-66
2024/01/09 01:02:58;;;;;;;17.20;7.80;;;;;;;-10.97;44.12;101465.00;108053;1253;74030;-66
2024/01/09 01:05:26;;;;;;;21.30;7.50;;;;;;;-11.09;43.93;101473.98;108056;1253;70732;-66
2024/01/09 01:07:54;;;;;;;20.00;7.30;;;;;;;-11.27;43.72;101477.81;108055;1253;71290;-66
2024/01/09 01:10:22;;;;;;;14.80;7.10;;;;;;;-11.34;44.33;101481.52;108057;1256;62518;-65
2024/01/09 01:12:49;;;;;;;17.90;7.20;;;;;;;-11.36;44.43;101485.92;108079;1253;60339;-66
2024/01/09 01:15:17;;;;;;;17.40;7.30;;;;;;;-11.35;44.88;101487.39;107992;1253;73811;-66
2024/01/09 01:17:44;;;;;;;20.50;8.20;;;;;;;-11.31;44.98;101488.16;108018;1253;70907;-66
2024/01/09 01:20:12;;;;;;;18.20;7.50;;;;;;;-11.23;45.21;101484.69;108149;1253;71409;-66
2024/01/09 01:22:41;;;;;;;12.70;6.80;;;;;;;-11.04;45.04;101485.34;108065;1253;61275;-66
2024/01/09 01:25:09;;;;;;;16.60;7.40;;;;;;;-10.99;45.02;101487.92;108092;1253;60292;-66
2024/01/09 01:27:36;;;;;;;16.90;7.80;;;;;;;-10.94;45.07;101486.59;108166;1253;72834;-66
2024/01/09 01:30:05;;;;;;;19.30;8.00;;;;;;;-10.81;44.86;101485.95;108037;1253;67757;-66
2024/01/09 01:32:33;;;;;;;13.40;5.80;;;;;;;-10.63;45.12;101487.20;108058;1254;72664;-67
2024/01/09 01:35:00;;;;;;;15.30;6.50;;;;;;;-10.44;44.63;101477.86;107866;1254;61579;-66
2024/01/09 01:37:29;;;;;;;16.10;6.30;;;;;;;-10.29;44.21;101479.34;108049;1252;60222;-66
2024/01/09 01:39:56;;;;;;;17.30;7.50;;;;;;;-10.32;44.07;101474.89;108138;1253;73747;-67
2024/01/09 01:42:23;;;;;;;18.00;7.90;;;;;;;-10.43;43.87;101478.06;108057;1253;70093;-66
2024/01/09 01:44:51;;;;;;;15.90;6.80;;;;;;;-10.54;44.13;101482.23;108099;1256;72453;-66
2024/01/09 01:47:19;;;;;;;16.70;7.80;;;;;;;-10.66;43.96;101484.64;108179;1253;61164;-66
2024/01/09 01:49:46;;;;;;;17.10;7.00;;;;;;;-10.65;44.69;101479.56;108050;1253;60435;-66
2024/01/09 01:52:14;;;;;;;24.40;7.60;;;;;;;-10.47;45.42;101474.06;108104;1253;72626;-66
2024/01/09 01:54:42;;;;;;;15.00;6.80;;;;;;;-10.17;45.68;101468.92;108019;1253;70145;-66
2024/01/09 01:57:10;;;;;;;16.10;6.50;;;;;;;-9.85;46.03;101472.47;108135;1253;70636;-66
2024/01/09 01:59:40;;;;;;;16.90;7.50;;;;;;;-9.61;46.03;101471.45;108142;1253;62719;-66
2024/01/09 02:02:08;;;;;;;14.70;6.80;;;;;;;-9.33;46.67;101473.42;107953;1253;60470;-66
2024/01/09 02:04:36;;;;;;;13.80;6.70;;;;;;;-9.06;46.61;101473.64;108101;1253;72915;-66
2024/01/09 02:07:03;;;;;;;14.40;7.20;;;;;;;-8.82;46.72;101471.39;108063;1253;70694;-66
2024/01/09 02:09:31;;;;;;;16.60;7.30;;;;;;;-8.64;46.91;101468.95;108083;1254;71602;-66
2024/01/09 02:11:58;;;;;;;17.30;7.40;;;;;;;-8.19;46.97;101464.09;108058;1254;61294;-66
2024/01/09 02:14:26;;;;;;;19.30;7.20;;;;;;;-8.06;46.42;101461.13;108023;1253;60247;-66
2024/01/09 02:16:54;;;;;;;20.30;8.10;;;;;;;-8.23;45.22;101463.41;108236;1253;72810;-67
2024/01/09 02:19:21;;;;;;;19.10;8.60;;;;;;;-8.61;44.36;101466.55;108105;1253;70081;-66
2024/01/09 02:21:50;;;;;;;18.80;8.20;;;;;;;-8.84;44.15;101469.40;108072;1253;71387;-66
2024/01/09 02:24:18;;;;;;;19.00;8.60;;;;;;;-9.06;43.73;101469.52;108156;1253;61480;-67
2024/01/09 02:26:54;;;;;;;15.70;6.90;;;;;;;-9.30;44.12;101465.98;108073;1253;60416;-66
2024/01/09 02:29:32;;;;;;;13.30;6.40;;;;;;;-9.46;44.78;101464.76;108010;1253;72665;-66
2024/01/09 02:32:00;;;;;;;21.50;8.40;;;;;;;-9.41;45.91;101468.84;108091;1256;69986;-66
2024/01/09 02:34:27;;;;;;;15.20;7.30;;;;;;;-9.24;46.72;101470.58;107903;1253;71254;-66
2024/01/09 02:36:55;;;;;;;19.30;7.70;;;;;;;-9.16;47.72;101467.88;108081;1253;61582;-66
2024/01/09 02:39:23;;;;;;;12.70;6.80;;;;;;;-8.78;47.88;101460.05;108041;1253;60054;-66
2024/01/09 02:41:51;;;;;;;18.50;7.40;;;;;;;-8.54;47.39;101459.64;108037;1253;72610;-66
2024/01/09 02:44:19;;;;;;;18.60;7.80;;;;;;;-8.48;47.58;101459.39;107983;1253;71038;-66
2024/01/09 02:46:46;;;;;;;17.90;7.10;;;;;;;-8.39;47.04;101458.66;108116;1253;72537;-66
2024/01/09 02:49:14;;;;;;;14.90;6.90;;;;;;;-8.24;47.40;101454.97;108169;1253;61328;-66
2024/01/09 02:51:42;;;;;;;17.00;7.70;;;;;;;-7.92;47.69;101454.96;108122;1253;60403;-66
2024/01/09 02:54:09;;;;;;;19.00;8.00;;;;;;;-7.87;47.00;101454.46;108075;1253;72583;-66
2024/01/09 02:56:37;;;;;;;23.10;9.60;;;;;;;-7.88;46.54;101453.34;108068;1253;68905;-65
2024/01/09 02:59:05;;;;;;;18.80;8.00;;;;;;;-8.06;45.64;101447.16;108060;1257;71603;-65
2024/01/09 03:01:32;;;;;;;21.40;8.50;;;;;;;-8.30;44.94;101449.35;108086;1253;61380;-67
2024/01/09 03:04:00;;;;;;;16.30;8.10;;;;;;;-8.55;44.19;101449.17;108135;1253;60951;-66
2024/01/09 03:06:28;;;;;;;22.60;8.00;;;;;;;-8.72;43.85;101452.92;108067;1253;72647;-66
2024/01/09 03:08:55;;;;;;;20.40;7.30;;;;;;;-8.93;44.48;101454.83;108095;1253;70436;-66
2024/01/09 03:11:23;;;;;;;15.10;6.70;;;;;;;-8.96;45.30;101455.33;108115;1253;71459;-66
2024/01/09 03:13:51;;;;;;;21.60;8.10;;;;;;;-8.71;46.31;101449.58;108081;1253;61305;-66
2024/01/09 03:16:18;;;;;;;25.20;8.70;;;;;;;-8.68;46.51;101445.18;108073;1253;60441;-65
2024/01/09 03:18:46;;;;;;;21.20;8.30;;;;;;;-8.60;46.61;101443.61;108058;1253;73900;-67
2024/01/09 03:21:14;;;;;;;17.70;8.60;;;;;;;-8.42;47.28;101445.23;108125;1253;71875;-66
2024/01/09 03:23:42;;;;;;;23.50;9.00;;;;;;;-8.20;47.78;101449.22;108080;1253;72967;-67
2024/01/09 03:26:10;;;;;;;24.40;9.00;;;;;;;-8.11;47.09;101453.03;107957;1253;60406;-66
2024/01/09 03:28:37;;;;;;;22.20;7.80;;;;;;;-8.08;46.82;101448.56;108039;1253;60332;-66
2024/01/09 03:31:05;;;;;;;18.30;8.10;;;;;;;-7.89;47.02;101451.06;107915;1253;73948;-67
2024/01/09 03:33:33;;;;;;;26.40;8.90;;;;;;;-7.82;46.71;101447.41;108113;1257;68858;-66
2024/01/09 03:36:04;;;;;;;23.00;8.10;;;;;;;-7.72;46.66;101446.93;108141;1253;71305;-66
2024/01/09 03:38:31;;;;;;;17.30;8.00;;;;;;;-7.90;45.20;101441.98;107992;1253;62440;-66
2024/01/09 03:40:59;;;;;;;24.30;8.90;;;;;;;-8.15;44.40;101443.25;108093;1253;60263;-66
2024/01/09 03:43:26;;;;;;;28.70;10.00;;;;;;;-8.48;43.94;101441.81;108018;1253;73819;-66
2024/01/09 03:45:56;;;;;;;19.00;8.10;;;;;;;-8.79;43.70;101442.10;108101;1253;68744;-67
2024/01/09 03:48:24;;;;;;;18.30;8.20;;;;;;;-9.02;43.80;101445.42;108050;1256;72696;-67
2024/01/09 03:50:52;;;;;;;24.40;7.70;;;;;;;-9.24;43.98;101451.38;108147;1253;62649;-67
2024/01/09 03:53:19;;;;;;;21.10;8.00;;;;;;;-9.34;44.47;101456.55;108157;1258;60293;-67
2024/01/09 03:55:47;;;;;;;18.60;8.20;;;;;;;-9.25;45.23;101462.17;108065;1253;72971;-66
2024/01/09 03:58:15;;;;;;;22.40;9.60;;;;;;;-9.28;45.51;101465.94;108110;1257;69031;-66
2024/01/09 04:00:42;;;;;;;19.50;7.70;;;;;;;-9.27;46.04;101465.84;108071;1257;72706;-66
2024/01/09 04:03:10;;;;;;;19.70;7.50;;;;;;;-9.03;46.92;101462.10;108087;1253;61248;-66
2024/01/09 04:05:38;;;;;;;20.00;6.90;;;;;;;-8.73;47.26;101456.62;108148;1253;60219;-66
2024/01/09 04:08:05;;;;;;;18.00;7.80;;;;;;;-8.67;46.37;101449.50;108142;1253;72893;-67
2024/01/09 04:10:33;;;;;;;17.50;7.30;;;;;;;-8.69;46.28;101445.83;108065;1253;70196;-66
2024/01/09 04:13:01;;;;;;;20.60;7.50;;;;;;;-8.61;46.28;101448.82;108122;1257;72629;-66
2024/01/09 04:15:29;;;;;;;20.30;8.20;;;;;;;-8.43;46.02;101447.73;108083;1253;62516;-66
2024/01/09 04:17:57;;;;;;;19.10;7.40;;;;;;;-8.35;45.31;101441.69;108019;1253;60370;-66
2024/01/09 04:20:24;;;;;;;20.60;7.60;;;;;;;-8.21;45.28;101438.94;108190;1253;72801;-67
2024/01/09 04:22:52;;;;;;;14.20;6.90;;;;;;;-8.26;44.21;101437.27;108063;1253;69474;-66
2024/01/09 04:25:19;;;;;;;16.40;7.20;;;;;;;-8.51;43.46;101440.62;108085;1253;72385;-66
2024/01/09 04:27:47;;;;;;;22.20;7.60;;;;;;;-8.77;43.26;101448.88;108144;1253;61304;-66
2024/01/09 04:30:14;;;;;;;17.90;7.20;;;;;;;-8.95;43.46;101450.13;108114;1253;60403;-66
2024/01/09 04:32:42;;;;;;;12.80;6.30;;;;;;;-9.01;43.50;101452.16;108149;1253;72414;-66
2024/01/09 04:35:10;;;;;;;20.10;7.00;;;;;;;-8.89;44.21;101452.77;108144;1253;68679;-66
2024/01/09 04:37:37;;;;;;;20.30;7.20;;;;;;;-8.81;45.13;101446.27;108079;1253;72409;-67
2024/01/09 04:40:06;;;;;;;15.40;5.80;;;;;;;-8.64;46.13;101443.04;108112;1253;61317;-66
2024/01/09 04:42:33;;;;;;;15.50;7.00;;;;;;;-8.45;46.01;101446.93;107985;1253;59196;-66
2024/01/09 04:45:01;;;;;;;13.70;5.90;;;;;;;-8.36;46.18;101443.88;108075;1253;72740;-66
2024/01/09 04:47:29;;;;;;;13.00;6.70;;;;;;;-8.20;46.36;101444.13;108093;1253;70086;-66
2024/01/09 04:49:56;;;;;;;16.40;6.80;;;;;;;-8.00;46.59;101440.35;108180;1253;71330;-66
2024/01/09 04:52:24;;;;;;;13.00;6.60;;;;;;;-7.88;46.28;101442.44;108153;1253;62438;-66
2024/01/09 04:54:52;;;;;;;23.10;6.70;;;;;;;-7.82;46.56;101441.91;108249;1253;60293;-67
2024/01/09 04:57:19;;;;;;;14.10;6.80;;;;;;;-7.67;46.14;101436.67;108121;1253;72642;-66
2024/01/09 04:59:48;;;;;;;23.00;7.00;;;;;;;-7.47;46.70;101438.11;108148;1253;68991;-66
2024/01/09 05:02:16;;;;;;;19.10;6.80;;;;;;;-7.47;45.70;101434.69;108105;1254;71684;-66
2024/01/09 05:04:44;;;;;;;18.20;7.10;;;;;;;-7.64;44.68;101433.42;108171;1253;60435;-66
2024/01/09 05:07:12;;;;;;;19.60;7.10;;;;;;;-7.91;43.65;101436.27;108167;1253;60333;-66
2024/01/09 05:09:39;;;;;;;18.30;7.20;;;;;;;-8.30;43.14;101439.96;108084;1257;73880;-65
2024/01/09 05:12:07;;;;;;;12.70;6.40;;;;;;;-8.56;43.18;101440.80;108012;1253;70208;-65
2024/01/09 05:14:34;;;;;;;16.10;5.90;;;;;;;-8.66;43.98;101446.14;108122;1253;72760;-66
2024/01/09 05:17:03;;;;;;;17.50;7.30;;;;;;;-8.63;44.73;101453.84;108105;1253;60669;-66
2024/01/09 05:19:30;;;;;;;14.40;5.20;;;;;;;-8.55;45.09;101452.78;108150;1253;60364;-66
2024/01/09 05:21:58;;;;;;;15.60;8.30;;;;;;;-8.56;45.45;101459.20;107863;1253;72662;-66
2024/01/09 05:24:25;;;;;;;14.00;6.80;;;;;;;-8.55;45.08;101450.92;107945;1253;68381;-65
2024/01/09 05:26:53;;;;;;;20.30;8.30;;;;;;;-8.36;45.30;101452.06;107981;1253;72833;-66
2024/01/09 05:29:20;;;;;;;15.10;6.60;;;;;;;-8.15;45.44;101449.89;108126;1253;61220;-66
2024/01/09 05:31:49;;;;;;;17.60;7.30;;;;;;;-7.94;45.10;101449.26;108152;1253;60762;-66
2024/01/09 05:34:16;;;;;;;19.60;7.40;;;;;;;-7.83;44.72;101447.33;108006;1253;72546;-67
2024/01/09 05:36:44;;;;;;;16.70;6.70;;;;;;;-7.83;44.42;101443.77;108036;1253;68813;-66
2024/01/09 05:39:11;;;;;;;18.20;7.40;;;;;;;-7.77;44.05;101444.44;108000;1257;71447;-65
2024/01/09 05:41:39;;;;;;;13.50;6.10;;;;;;;-7.75;43.61;101446.22;108087;1253;60992;-65
2024/01/09 05:44:07;;;;;;;18.00;6.90;;;;;;;-7.85;43.35;101445.04;108046;1253;60468;-66
2024/01/09 05:46:34;;;;;;;20.80;8.30;;;;;;;-7.99;43.14;101446.58;107940;1253;73933;-65
2024/01/09 05:49:02;;;;;;;14.10;6.50;;;;;;;-8.14;42.70;101453.36;108061;1259;68118;-66
2024/01/09 05:51:30;;;;;;;17.50;7.50;;;;;;;-8.24;42.64;101455.16;108113;1253;71835;-65
2024/01/09 05:53:57;;;;;;;17.60;7.30;;;;;;;-8.26;43.21;101461.66;108092;1253;62597;-66
2024/01/09 05:56:25;;;;;;;16.70;7.70;;;;;;;-8.34;43.42;101463.56;108132;1253;61175;-66
2024/01/09 05:58:52;;;;;;;18.90;7.10;;;;;;;-8.25;44.64;101468.54;108098;1253;72816;-66
2024/01/09 06:01:20;;;;;;;15.50;7.20;;;;;;;-8.04;44.99;101468.61;108071;1253;70598;-65
2024/01/09 06:03:47;;;;;;;17.00;7.50;;;;;;;-7.95;45.52;101469.32;108017;1253;71457;-65
2024/01/09 06:06:15;;;;;;;16.70;6.80;;;;;;;-7.76;45.64;101466.48;108074;1253;60792;-66
2024/01/09 06:08:43;;;;;;;15.40;6.80;;;;;;;-7.54;45.96;101472.04;108111;1253;60021;-66
2024/01/09 06:11:11;;;;;;;20.70;7.50;;;;;;;-7.21;46.58;101470.98;108118;1253;72569;-65
2024/01/09 06:13:38;;;;;;;24.80;8.20;;;;;;;-6.97;46.07;101467.02;108155;1253;69931;-66
2024/01/09 06:16:07;;;;;;;15.10;7.30;;;;;;;-6.80;45.67;101467.73;108061;1253;71435;-66
2024/01/09 06:18:35;;;;;;;14.00;6.80;;;;;;;-6.48;45.62;101468.65;108118;1253;61681;-66
2024/01/09 06:21:04;;;;;;;17.20;6.90;;;;;;;-6.20;45.07;101475.43;108148;1253;60244;-66
2024/01/09 06:23:31;;;;;;;16.30;7.20;;;;;;;-6.15;43.76;101473.13;108070;1253;72633;-66
2024/01/09 06:25:59;;;;;;;18.10;7.50;;;;;;;-6.26;43.32;101471.02;108104;1257;69012;-66
2024/01/09 06:28:26;;;;;;;16.60;7.20;;;;;;;-6.31;42.55;101469.20;107804;1255;72703;-66
2024/01/09 06:30:54;;;;;;;17.10;8.00;;;;;;;-6.44;42.28;101466.64;108103;1253;62114;-66
2024/01/09 06:33:22;;;;;;;14.20;6.40;;;;;;;-6.58;42.28;101466.42;108119;1256;60297;-66
2024/01/09 06:35:49;;;;;;;17.70;6.60;;;;;;;-6.62;42.66;101471.66;108095;1253;73864;-66
2024/01/09 06:38:17;;;;;;;16.80;6.30;;;;;;;-6.68;43.11;101467.92;108047;1253;69244;-65
2024/01/09 06:40:44;;;;;;;14.20;6.00;;;;;;;-6.47;44.44;101468.19;108146;1253;71228;-65
2024/01/09 06:43:12;;;;;;;17.60;5.90;;;;;;;-6.22;45.00;101464.70;108035;1255;61195;-66
2024/01/09 06:45:40;;;;;;;17.30;6.00;;;;;;;-5.99;44.98;101462.95;108140;1253;60113;-67
2024/01/09 06:48:07;;;;;;;13.60;6.00;;;;;;;-5.60;45.26;101466.95;108161;1253;72486;-66
2024/01/09 06:50:35;;;;;;;20.70;7.40;;;;;;;-5.24;45.12;101463.42;108080;1253;70282;-66
2024/01/09 06:53:04;;;;;;;24.30;8.40;;;;;;;-4.94;45.29;101472.91;107982;1253;72033;-66
2024/01/09 06:55:32;;;;;;;15.00;6.90;;;;;;;-4.69;45.25;101475.07;108143;1253;60595;-65
2024/01/09 06:58:02;;;;;;;12.00;6.00;;;;;;;-4.46;44.85;101477.35;107812;1253;185292;-66
2024/01/09 07:00:29;;;;;;;15.20;6.40;;;;;;;-4.24;44.82;101475.91;108024;1253;72548;-66
2024/01/09 07:05:15;;;;;;;11.70;6.00;;;;;;;-6.13;49.53;101489.85;104716;1292;600099;-65
2024/01/09 07:07:42;;;;;;;15.80;6.80;;;;;;;-4.69;43.63;101485.88;107300;1267;61984;-66
2024/01/09 07:10:17;;;;;;;15.20;6.00;;;;;;;-4.74;42.70;101492.15;107333;1267;60240;-66
2024/01/09 07:12:44;;;;;;;15.80;6.70;;;;;;;-4.81;42.69;101498.89;107453;1266;72754;-66
2024/01/09 07:15:13;;;;;;;20.40;7.30;;;;;;;-4.97;43.00;101500.52;107328;1266;59191;-66
2024/01/09 07:17:41;;;;;;;12.70;6.20;;;;;;;-5.07;43.37;101505.02;107253;1267;168049;-66
2024/01/09 07:20:09;;;;;;;14.10;6.60;;;;;;;-5.06;43.70;101505.06;107562;1261;60528;-66
2024/01/09 07:22:36;;;;;;;15.20;7.20;;;;;;;-5.12;44.56;101506.81;107845;1260;59636;-66
2024/01/09 07:25:04;;;;;;;17.20;7.00;;;;;;;-5.15;45.51;101508.36;107820;1258;72785;-67
2024/01/09 07:27:31;;;;;;;14.20;6.60;;;;;;;-5.04;46.59;101510.30;107821;1262;70608;-65
2024/01/09 07:29:57;;;;;;;16.30;6.30;;;;;;;-4.81;47.26;101508.29;107868;1257;73046;-66
2024/01/09 07:32:25;;;;;;;14.20;6.40;;;;;;;-4.42;48.15;101507.88;107792;1258;60701;-66
2024/01/09 07:34:52;;;;;;;19.20;8.00;;;;;;;-4.02;47.76;101513.09;107893;1260;59130;-66
2024/01/09 07:37:22;;;;;;;13.60;7.00;;;;;;;-3.74;47.32;101514.11;107766;1257;73464;-66
2024/01/09 07:39:49;;;;;;;14.40;6.60;;;;;;;-3.53;47.19;101521.57;107820;1263;70635;-66
2024/01/09 07:42:16;;;;;;;20.00;8.10;;;;;;;-3.32;46.57;101520.73;107806;1258;72220;-66
2024/01/09 07:44:43;;;;;;;18.30;6.90;;;;;;;-3.17;46.42;101516.86;107741;1260;61813;-66
2024/01/09 07:47:11;;;;;;;16.80;8.40;;;;;;;-3.08;45.50;101521.53;107713;1260;60354;-66
2024/01/09 07:49:40;;;;;;;13.50;5.90;;;;;;;-3.18;44.00;101522.67;107736;1261;71612;-66
2024/01/09 07:52:08;;;;;;;19.60;7.30;;;;;;;-3.38;43.96;101522.38;107634;1260;68852;-66
2024/01/09 07:54:35;;;;;;;16.10;6.50;;;;;;;-3.56;43.77;101525.69;107680;1263;73917;-66
2024/01/09 07:57:02;;;;;;;17.10;7.00;;;;;;;-3.75;44.69;101526.96;107607;1260;61771;-66
2024/01/09 07:59:29;;;;;;;18.90;8.30;;;;;;;-3.93;44.11;101524.27;107677;1263;59592;-66
2024/01/09 08:01:56;;;;;;;17.30;7.70;;;;;;;-4.24;44.53;101519.48;107767;1261;72911;-66
2024/01/09 08:04:23;;;;;;;18.60;7.80;;;;;;;-4.29;44.98;101524.23;107727;1261;70259;-66
2024/01/09 08:06:50;;;;;;;17.50;7.60;;;;;;;-4.29;45.27;101527.98;107614;1263;73172;-66
2024/01/09 08:09:18;;;;;;;16.70;6.40;;;;;;;-4.26;45.78;101530.38;107677;1261;60930;-66
2024/01/09 08:11:45;;;;;;;20.20;8.10;;;;;;;-4.05;46.64;101531.50;107634;1259;60553;-66
2024/01/09 08:14:13;;;;;;;16.80;7.40;;;;;;;-3.71;47.69;101529.52;107634;1261;73047;-66
2024/01/09 08:16:42;;;;;;;16.00;6.60;;;;;;;-3.38;47.99;101534.90;107631;1261;72135;-66
2024/01/09 08:19:09;;;;;;;18.70;7.40;;;;;;;-3.06;48.46;101536.75;107569;1261;71364;-66
2024/01/09 08:21:36;;;;;;;11.60;6.30;;;;;;;-2.59;48.38;101542.92;107583;1259;63107;-66
2024/01/09 08:24:08;;;;;;;17.30;7.90;;;;;;;-2.09;47.37;101538.45;107675;1260;61661;-67
2024/01/09 08:26:35;;;;;;;18.60;7.30;;;;;;;-1.89;46.89;101543.29;107689;1259;72928;-66
2024/01/09 08:29:03;;;;;;;13.90;7.10;;;;;;;-1.70;45.87;101546.41;107636;1261;71049;-66
2024/01/09 08:31:30;;;;;;;15.40;7.10;;;;;;;-1.63;45.46;101540.96;107688;1260;72633;-67
2024/01/09 08:33:57;;;;;;;15.90;7.40;;;;;;;-1.50;45.79;101543.33;107959;1256;63079;-67
2024/01/09 08:36:23;;;;;;;17.90;8.80;;;;;;;-1.51;44.95;101542.91;107887;1258;59496;-67
2024/01/09 08:38:51;;;;;;;14.80;7.50;;;;;;;-1.86;43.93;101543.05;107938;1257;73403;-68
2024/01/09 08:41:20;;;;;;;17.60;7.90;;;;;;;-2.09;43.21;101542.55;107974;1258;70352;-67
2024/01/09 08:43:47;;;;;;;21.70;8.10;;;;;;;-2.41;43.50;101541.53;107923;1257;73916;-67
2024/01/09 08:46:14;;;;;;;16.10;7.80;;;;;;;-2.61;43.52;101551.25;107940;1257;62096;-67
2024/01/09 08:48:41;;;;;;;21.20;8.00;;;;;;;-2.76;43.72;101550.99;108007;1255;59958;-67
2024/01/09 08:51:08;;;;;;;18.10;8.40;;;;;;;-2.87;44.10;101547.48;107958;1257;73678;-66
2024/01/09 08:53:42;;;;;;;17.70;8.80;;;;;;;-2.99;44.62;101549.58;107929;1257;70082;-66
2024/01/09 08:56:09;;;;;;;19.80;8.60;;;;;;;-3.04;45.27;101550.71;107902;1257;73121;-66
2024/01/09 08:58:36;;;;;;;14.70;7.00;;;;;;;-3.16;45.31;101552.98;107881;1258;63086;-66
2024/01/09 09:01:03;;;;;;;19.90;8.10;;;;;;;-3.05;45.51;101557.38;107927;1260;61545;-66
2024/01/09 09:03:30;;;;;;;21.80;8.90;;;;;;;-2.99;45.54;101557.80;107967;1258;73080;-66
2024/01/09 09:05:57;;;;;;;19.60;8.40;;;;;;;-2.86;45.14;101552.00;107952;1258;70428;-66
2024/01/09 09:08:24;;;;;;;16.10;8.00;;;;;;;-2.80;45.82;101554.10;107930;1259;73028;-66
2024/01/09 09:10:51;;;;;;;18.20;8.00;;;;;;;-2.75;45.39;101558.95;107965;1257;63054;-66
2024/01/09 09:13:18;;;;;;;18.30;8.40;;;;;;;-2.67;45.57;101557.70;108270;1254;60319;-67
2024/01/09 09:15:44;;;;;;;24.20;9.30;;;;;;;-2.55;45.29;101559.05;108100;1254;72335;-66
2024/01/09 09:18:11;;;;;;;18.30;8.60;;;;;;;-2.59;45.28;101554.06;108156;1254;70709;-66
2024/01/09 09:20:38;;;;;;;21.50;9.60;;;;;;;-2.56;45.48;101554.87;108121;1253;72353;-66
2024/01/09 09:23:05;;;;;;;18.50;8.40;;;;;;;-2.43;45.05;101557.95;108100;1254;62145;-67
2024/01/09 09:25:32;;;;;;;22.80;9.30;;;;;;;-2.54;45.11;101552.89;108112;1253;61455;-66
2024/01/09 09:27:59;;;;;;;21.60;9.70;;;;;;;-2.60;45.75;101557.30;108056;1253;74395;-66
2024/01/09 09:30:27;;;;;;;17.80;8.90;;;;;;;-2.54;45.29;101559.61;108217;1254;70480;-66
2024/01/09 09:32:58;;;;;;;21.80;8.80;;;;;;;-2.54;45.28;101561.50;108206;1253;71367;-66
2024/01/09 09:35:25;;;;;;;19.80;9.20;;;;;;;-2.50;44.86;101562.36;108169;1253;62080;-66
2024/01/09 09:37:52;;;;;;;21.30;8.30;;;;;;;-2.50;45.43;101562.52;108084;1254;60521;-68
2024/01/09 09:40:18;;;;;;;20.20;9.30;;;;;;;-2.38;45.23;101566.09;108051;1254;73135;-67
2024/01/09 09:42:47;;;;;;;17.60;9.20;;;;;;;-2.38;44.64;101564.34;108169;1253;70376;-67
2024/01/09 09:45:14;;;;;;;22.20;8.90;;;;;;;-2.41;45.24;101566.98;108086;1254;72485;-66
2024/01/09 09:47:41;;;;;;;22.60;8.80;;;;;;;-2.46;45.54;101567.83;108034;1254;61915;-67
2024/01/09 09:50:09;;;;;;;21.20;8.60;;;;;;;-2.50;45.42;101568.33;108085;1254;60312;-66
2024/01/09 09:52:39;;;;;;;24.30;9.80;;;;;;;-2.49;45.58;101565.46;108035;1253;71712;-67
2024/01/09 09:55:08;;;;;;;22.00;10.00;;;;;;;-2.49;45.91;101566.52;108106;1254;68889;-66
2024/01/09 09:57:35;;;;;;;15.50;7.00;;;;;;;-2.61;45.79;101567.58;108090;1255;72690;-66
2024/01/09 10:00:04;;;;;;;26.60;10.90;;;;;;;-2.50;46.35;101569.92;108127;1253;61854;-66
2024/01/09 10:02:31;;;;;;;19.70;9.90;;;;;;;-2.48;46.03;101569.63;108090;1253;60347;-67
2024/01/09 10:05:02;;;;;;;20.70;9.00;;;;;;;-2.55;46.75;101567.66;108094;1255;71852;-66
2024/01/09 10:07:29;;;;;;;24.70;10.10;;;;;;;-2.46;46.74;101567.31;108127;1254;69754;-66
2024/01/09 10:09:56;;;;;;;19.30;8.90;;;;;;;-2.36;46.71;101560.64;108099;1254;72574;-67
2024/01/09 10:12:24;;;;;;;25.40;10.00;;;;;;;-2.46;47.22;101560.93;108055;1254;61827;-66
2024/01/09 10:15:07;;;;;;;25.00;9.40;;;;;;;-2.40;46.87;101559.63;108116;1253;59497;-67
2024/01/09 10:17:35;;;;;;;23.50;9.10;;;;;;;-2.38;46.92;101563.15;108053;1253;73447;-66
2024/01/09 10:20:04;;;;;;;17.60;9.00;;;;;;;-2.45;46.86;101555.84;108143;1254;70409;-66
2024/01/09 10:22:35;;;;;;;27.70;9.50;;;;;;;-2.52;47.14;101556.26;108205;1254;73946;-66
2024/01/09 10:25:06;;;;;;;21.60;10.50;;;;;;;-2.47;47.29;101558.34;108065;1253;63128;-66
2024/01/09 10:27:35;;;;;;;21.10;10.10;;;;;;;-2.43;47.63;101555.05;108254;1253;60324;-67
2024/01/09 10:30:03;;;;;;;23.30;9.40;;;;;;;-2.32;48.34;101548.25;108264;1254;73005;-68
2024/01/09 10:32:32;;;;;;;23.60;10.90;;;;;;;-2.38;48.65;101541.66;108147;1253;68310;-66
2024/01/09 10:35:00;;;;;;;22.30;10.50;;;;;;;-2.38;48.27;101541.46;108195;1254;72658;-67
2024/01/09 10:37:26;;;;;;;22.60;9.60;;;;;;;-2.40;48.22;101541.09;108103;1253;61611;-66
2024/01/09 10:39:53;;;;;;;21.80;9.90;;;;;;;-2.28;48.68;101539.59;108074;1253;60172;-67
2024/01/09 10:42:20;;;;;;;22.50;10.20;;;;;;;-2.26;48.46;101540.54;108178;1255;73334;-66
2024/01/09 10:44:49;;;;;;;23.50;11.40;;;;;;;-2.18;48.53;101541.00;108169;1254;68834;-66
2024/01/09 10:47:17;;;;;;;23.20;10.20;;;;;;;-2.10;48.36;101536.34;108142;1253;71674;-66
2024/01/09 10:49:45;;;;;;;24.80;10.70;;;;;;;-2.04;48.61;101533.27;108117;1253;59681;-66
2024/01/09 10:52:13;;;;;;;24.50;10.80;;;;;;;-1.96;48.68;101529.27;108144;1253;59668;-66
2024/01/09 10:54:41;;;;;;;19.00;8.60;;;;;;;-1.86;48.50;101529.80;108154;1253;75022;-66
2024/01/09 10:57:12;;;;;;;17.70;9.10;;;;;;;-1.64;48.21;101529.73;108234;1253;69413;-66
2024/01/09 10:59:40;;;;;;;21.40;9.40;;;;;;;-1.60;48.33;101532.79;108168;1256;72649;-67
2024/01/09 11:02:15;;;;;;;23.30;10.30;;;;;;;-1.58;48.41;101529.41;108149;1254;60600;-66
2024/01/09 11:04:43;;;;;;;22.80;9.90;;;;;;;-1.59;48.07;101525.09;108170;1253;59500;-66
2024/01/09 11:07:15;;;;;;;18.20;8.80;;;;;;;-1.66;48.62;101526.04;108034;1253;73185;-66
2024/01/09 11:09:46;;;;;;;17.70;8.40;;;;;;;-1.66;48.50;101531.89;108219;1253;71639;-67
2024/01/09 11:12:24;;;;;;;22.20;9.90;;;;;;;-1.36;48.05;101529.47;108079;1254;72404;-66